createdAt,value
2018-06-21T00:00:48.655Z,13.83
2018-06-21T00:03:17.240Z,13.03
2018-06-21T00:05:46.378Z,13.38
2018-06-21T00:08:14.986Z,11.95
2018-06-21T00:10:43.794Z,14.00
2018-06-21T00:13:13.285Z,14.07
2018-06-21T00:15:43.058Z,13.38
2018-06-21T00:18:12.428Z,13.93
2018-06-21T00:20:40.642Z,14.78
2018-06-21T00:23:09.321Z,16.32
2018-06-21T00:25:37.961Z,15.70
2018-06-21T00:28:07.184Z,14.93
2018-06-21T00:30:35.801Z,17.87
2018-06-21T00:33:05.334Z,18.23
2018-06-21T00:35:34.284Z,20.62
2018-06-21T00:38:03.245Z,15.93
2018-06-21T00:40:33.119Z,16.20
2018-06-21T00:43:03.603Z,15.98
2018-06-21T00:45:32.866Z,16.05
2018-06-21T00:48:01.529Z,18.90
2018-06-21T00:50:30.277Z,16.45
2018-06-21T00:52:58.861Z,17.52
2018-06-21T00:55:38.783Z,14.80
2018-06-21T00:58:08.664Z,14.40
2018-06-21T01:00:37.310Z,16.02
2018-06-21T01:03:06.845Z,12.33
2018-06-21T01:05:36.604Z,13.18
2018-06-21T01:08:06.280Z,11.35
2018-06-21T01:10:35.628Z,13.10
2018-06-21T01:13:04.393Z,10.75
2018-06-21T01:15:33.136Z,10.72
2018-06-21T01:18:01.773Z,10.05
2018-06-21T01:20:30.769Z,9.58
2018-06-21T01:22:59.328Z,10.48
2018-06-21T01:25:27.962Z,8.73
2018-06-21T01:27:57.718Z,9.28
2018-06-21T01:30:27.059Z,9.48
2018-06-21T01:32:56.358Z,8.20
2018-06-21T01:35:25.704Z,9.58
2018-06-21T01:37:55.262Z,11.30
2018-06-21T01:40:24.827Z,8.85
2018-06-21T01:42:53.383Z,10.48
2018-06-21T01:45:22.022Z,9.60
2018-06-21T01:47:50.693Z,7.85
2018-06-21T06:58:56.551Z,7.53
2018-06-21T07:01:25.155Z,7.45
2018-06-21T07:03:53.883Z,7.85
2018-06-21T07:06:22.523Z,7.78
2018-06-21T07:08:51.962Z,11.03
2018-06-21T07:11:20.583Z,10.63
2018-06-21T07:13:49.200Z,9.68
2018-06-21T07:16:17.732Z,8.30
2018-06-21T07:18:46.403Z,11.40
2018-06-21T07:21:15.870Z,10.75
2018-06-21T07:23:44.506Z,9.78
2018-06-21T07:26:13.092Z,8.05
2018-06-21T07:28:41.705Z,9.68
2018-06-21T07:31:10.335Z,6.72
2018-06-21T07:33:39.028Z,7.35
2018-06-21T07:36:07.280Z,6.45
2018-06-21T07:38:35.873Z,5.37
2018-06-21T07:41:04.088Z,4.22
2018-06-21T07:43:33.340Z,6.05
2018-06-21T07:46:01.536Z,5.87
2018-06-21T07:48:31.291Z,5.05
2018-06-21T07:50:59.894Z,5.60
2018-06-21T07:53:28.517Z,7.28
2018-06-21T07:55:57.100Z,6.80
2018-06-21T07:58:25.843Z,6.22
2018-06-21T08:00:54.464Z,4.20
2018-06-21T08:03:23.210Z,3.90
2018-06-21T08:05:51.686Z,8.18
2018-06-21T08:08:20.276Z,4.72
2018-06-21T08:10:48.906Z,5.75
2018-06-21T08:13:18.537Z,5.62
2018-06-21T08:15:47.163Z,6.15
2018-06-21T08:18:17.552Z,6.42
2018-06-21T08:20:47.738Z,5.05
2018-06-21T08:23:19.634Z,7.35
2018-06-21T08:25:48.590Z,7.12
2018-06-21T08:28:19.762Z,5.45
2018-06-21T08:30:50.484Z,8.20
2018-06-21T08:33:19.823Z,5.62
2018-06-21T08:35:50.404Z,5.05
2018-06-21T08:38:20.310Z,4.53
2018-06-21T08:40:48.883Z,6.15
2018-06-21T08:43:17.501Z,5.25
2018-06-21T08:45:54.228Z,5.53
2018-06-21T08:48:22.857Z,5.90
2018-06-21T08:50:53.301Z,4.00
2018-06-21T08:53:22.876Z,5.20
2018-06-21T08:55:51.520Z,5.20
2018-06-21T08:58:20.399Z,5.65
2018-06-21T09:00:48.945Z,8.33
2018-06-21T09:03:17.616Z,9.18
2018-06-21T09:05:46.717Z,4.45
2018-06-21T09:08:15.306Z,4.28
2018-06-21T09:10:43.913Z,4.10
2018-06-21T09:13:12.517Z,3.45
2018-06-21T09:15:42.004Z,6.03
2018-06-21T09:18:10.510Z,3.27
2018-06-21T09:20:39.100Z,4.50
2018-06-21T09:23:07.733Z,5.17
2018-06-21T09:48:56.413Z,7.35
2018-06-21T09:51:25.058Z,4.78
2018-06-21T09:53:54.431Z,5.53
2018-06-21T09:56:23.002Z,7.90
2018-06-21T09:58:51.584Z,4.87
2018-06-21T10:01:21.158Z,7.45
2018-06-21T10:03:49.852Z,4.87
2018-06-21T10:06:18.382Z,3.47
2018-06-21T10:08:47.491Z,8.90
2018-06-21T10:11:16.089Z,9.25
2018-06-21T10:13:44.792Z,9.60
2018-06-21T10:16:13.330Z,8.03
2018-06-21T10:18:41.988Z,5.12
2018-06-21T10:21:11.415Z,4.97
2018-06-21T10:23:40.004Z,4.47
2018-06-21T10:26:08.553Z,6.60
2018-06-21T10:28:37.165Z,4.53
2018-06-21T10:31:05.756Z,5.92
2018-06-21T10:33:34.433Z,7.45
2018-06-21T10:36:02.731Z,6.28
2018-06-21T10:38:31.256Z,3.67
2018-06-21T10:41:00.528Z,3.95
2018-06-21T10:43:29.181Z,2.47
2018-06-21T10:45:57.747Z,5.50
2018-06-21T10:48:26.334Z,6.55
2018-06-21T10:50:54.884Z,9.53
2018-06-21T10:53:23.508Z,4.80
2018-06-21T10:55:52.422Z,6.08
2018-06-21T10:58:21.161Z,8.23
2018-06-21T11:00:49.748Z,5.22
2018-06-21T11:03:18.990Z,5.50
2018-06-21T11:05:47.668Z,4.22
2018-06-21T11:08:16.289Z,6.55
2018-06-21T11:10:44.898Z,6.87
2018-06-21T11:13:13.551Z,3.90
2018-06-21T11:15:42.134Z,4.33
2018-06-21T11:18:10.724Z,2.87
2018-06-21T11:20:39.417Z,3.50
2018-06-21T11:23:08.136Z,7.17
2018-06-21T11:25:36.984Z,3.67
2018-06-21T11:28:05.719Z,3.87
2018-06-21T11:30:35.992Z,4.08
2018-06-21T11:33:06.536Z,6.08
2018-06-21T11:35:35.588Z,4.75
2018-06-21T11:38:04.207Z,9.38
2018-06-21T11:40:32.804Z,4.58
2018-06-21T11:43:02.837Z,5.72
2018-06-21T11:45:36.326Z,6.30
2018-06-21T11:48:04.887Z,10.90
2018-06-21T11:50:33.476Z,7.50
2018-06-21T11:53:02.084Z,7.58
2018-06-21T11:55:31.285Z,7.08
2018-06-21T11:57:59.831Z,6.15
2018-06-21T12:00:28.535Z,5.00
2018-06-21T12:02:57.945Z,6.65
2018-06-21T12:05:27.595Z,4.17
2018-06-21T12:07:57.110Z,8.15
2018-06-21T12:10:25.693Z,7.20
2018-06-21T12:12:54.334Z,6.58
2018-06-21T12:15:22.910Z,3.72
2018-06-21T12:17:56.780Z,7.60
2018-06-21T12:20:26.341Z,5.83
2018-06-21T12:22:56.448Z,3.92
2018-06-21T12:25:25.043Z,6.40
2018-06-21T12:27:53.772Z,7.00
2018-06-21T12:30:22.298Z,8.28
2018-06-21T12:32:50.961Z,9.93
2018-06-21T12:35:20.581Z,7.83
2018-06-21T12:37:49.125Z,5.67
2018-06-21T12:40:17.724Z,3.52
2018-06-21T12:42:46.379Z,5.58
2018-06-21T12:45:14.893Z,4.70
2018-06-21T12:47:44.146Z,4.58
2018-06-21T12:50:12.825Z,4.87
2018-06-21T12:52:41.884Z,6.53
2018-06-21T12:55:10.791Z,5.83
2018-06-21T12:57:39.455Z,4.17
2018-06-21T13:00:09.407Z,6.40
2018-06-21T13:02:38.094Z,3.83
2018-06-21T13:05:08.157Z,4.92
2018-06-21T13:07:36.702Z,4.62
2018-06-21T13:10:16.654Z,6.85
2018-06-21T13:13:01.838Z,3.65
2018-06-21T13:15:30.443Z,5.47
2018-06-21T13:17:58.982Z,6.03
2018-06-21T13:20:27.695Z,8.60
2018-06-21T13:22:57.535Z,4.72
2018-06-21T13:25:26.076Z,7.72
2018-06-21T13:27:54.728Z,3.85
2018-06-21T13:30:23.604Z,7.58
2018-06-21T13:32:52.497Z,5.20
2018-06-21T13:35:21.061Z,4.95
2018-06-21T13:37:49.608Z,4.60
2018-06-21T13:40:18.195Z,3.72
2018-06-21T13:42:46.776Z,4.47
2018-06-21T13:45:15.337Z,4.33
2018-06-21T13:47:44.498Z,3.47
2018-06-21T13:50:13.090Z,4.87
2018-06-21T13:52:41.769Z,9.55
2018-06-21T13:55:10.901Z,7.72
2018-06-21T13:57:39.497Z,4.62
2018-06-21T14:00:08.795Z,4.20
2018-06-21T14:02:37.410Z,5.25
2018-06-21T14:05:05.973Z,4.90
2018-06-21T14:07:34.656Z,4.53
2018-06-21T14:10:03.103Z,3.45
2018-06-21T14:12:31.774Z,4.72
2018-06-21T14:15:00.362Z,6.17
2018-06-21T14:17:31.704Z,6.75
2018-06-21T14:20:00.262Z,8.10
2018-06-21T14:22:29.862Z,8.88
2018-06-21T14:24:58.402Z,6.78
2018-06-21T14:27:26.964Z,5.95
2018-06-21T14:29:56.411Z,7.80
2018-06-21T14:32:25.021Z,10.82
2018-06-21T14:34:54.830Z,11.93
2018-06-21T14:37:23.381Z,5.95
2018-06-21T14:39:51.928Z,4.22
2018-06-21T14:42:20.616Z,6.00
2018-06-21T14:44:49.183Z,4.45
2018-06-21T14:47:17.841Z,5.90
2018-06-21T14:49:46.406Z,4.53
2018-06-21T14:52:14.961Z,3.98
2018-06-21T14:54:44.492Z,4.72
2018-06-21T14:57:13.546Z,6.67
2018-06-21T14:59:42.594Z,2.42
2018-06-21T15:02:11.763Z,4.75
2018-06-21T15:04:40.394Z,4.78
2018-06-21T15:07:08.914Z,4.85
2018-06-21T15:09:37.495Z,5.15
2018-06-21T15:12:06.064Z,4.42
2018-06-21T15:14:34.623Z,4.20
2018-06-21T15:17:03.161Z,5.00
2018-06-21T15:19:31.711Z,4.87
2018-06-21T15:22:00.263Z,4.20
2018-06-21T15:24:28.846Z,2.58
2018-06-21T15:26:58.011Z,2.65
2018-06-21T15:29:26.489Z,4.03
2018-06-21T15:31:55.245Z,1.17
2018-06-21T15:34:23.858Z,2.42
2018-06-21T15:36:52.464Z,2.95
2018-06-21T15:39:23.628Z,2.55
2018-06-21T15:41:53.037Z,2.45
2018-06-21T15:44:22.242Z,1.80
2018-06-21T15:46:50.751Z,4.55
2018-06-21T15:49:19.309Z,3.47
2018-06-21T15:51:47.857Z,4.83
2018-06-21T15:54:16.607Z,3.42
2018-06-21T15:56:46.046Z,3.72
2018-06-21T15:59:15.086Z,3.10
2018-06-21T16:01:43.625Z,3.45
2018-06-21T16:04:12.295Z,3.67
2018-06-21T16:06:40.839Z,2.83
2018-06-21T16:09:10.378Z,2.55
2018-06-21T16:11:39.286Z,3.25
2018-06-21T16:14:07.974Z,3.33
2018-06-21T16:16:36.594Z,2.92
2018-06-21T16:19:06.122Z,2.60
2018-06-21T16:21:34.729Z,4.25
2018-06-21T16:24:03.318Z,3.25
2018-06-21T16:26:31.924Z,2.70
2018-06-21T16:29:00.751Z,4.05
2018-06-21T16:31:29.377Z,2.95
2018-06-21T16:33:58.027Z,3.47
2018-06-21T16:36:26.910Z,6.87
2018-06-21T16:38:55.575Z,2.65
2018-06-21T16:41:24.180Z,2.25
2018-06-21T16:43:52.844Z,2.90
2018-06-21T16:46:21.414Z,3.55
2018-06-21T16:48:50.155Z,2.85
2018-06-21T16:51:20.790Z,3.70
2018-06-21T16:53:49.386Z,2.02
2018-06-21T16:56:18.978Z,2.60
2018-06-21T16:58:47.595Z,2.15
2018-06-21T17:01:18.006Z,4.45
2018-06-21T17:03:47.404Z,1.42
2018-06-21T17:06:17.919Z,2.52
2018-06-21T17:08:47.639Z,3.12
2018-06-21T17:11:16.216Z,2.12
2018-06-21T17:13:44.902Z,3.25
2018-06-21T17:16:13.412Z,4.03
2018-06-21T17:18:42.544Z,3.90
2018-06-21T17:21:11.089Z,3.10
2018-06-21T17:23:39.783Z,3.45
2018-06-21T17:26:09.314Z,4.97
2018-06-21T17:28:37.922Z,3.08
2018-06-21T17:31:06.508Z,4.45
2018-06-21T17:33:35.149Z,2.40
2018-06-21T17:36:03.759Z,4.40
2018-06-21T17:38:32.282Z,3.27
2018-06-21T17:41:00.462Z,4.17
2018-06-21T17:43:29.086Z,5.85
2018-06-21T17:45:57.735Z,4.62
2018-06-21T17:48:26.274Z,4.22
2018-06-21T17:50:54.840Z,3.17
2018-06-21T17:53:23.455Z,3.72
2018-06-21T17:55:52.035Z,3.27
2018-06-21T17:58:20.633Z,4.65
2018-06-21T18:00:49.935Z,4.08
2018-06-21T18:03:18.582Z,3.33
2018-06-21T18:05:47.184Z,3.12
2018-06-21T18:08:15.784Z,3.40
2018-06-21T18:10:44.401Z,3.65
2018-06-21T18:13:13.181Z,3.05
2018-06-21T18:15:41.767Z,3.30
2018-06-21T18:18:10.458Z,3.87
2018-06-21T18:20:39.854Z,3.20
2018-06-21T18:23:08.902Z,3.45
2018-06-21T18:25:37.463Z,3.27
2018-06-21T18:28:06.578Z,4.75
2018-06-21T18:30:35.165Z,4.42
2018-06-21T18:33:03.735Z,5.80
2018-06-21T18:35:33.238Z,5.40
2018-06-21T18:38:01.724Z,2.60
2018-06-21T18:40:30.314Z,2.87
2018-06-21T18:42:59.025Z,6.22
2018-06-21T18:45:27.597Z,4.97
2018-06-21T18:47:56.758Z,4.72
2018-06-21T18:50:25.374Z,3.35
2018-06-21T18:52:54.249Z,4.90
2018-06-21T18:55:22.784Z,5.08
2018-06-21T18:57:51.300Z,5.90
2018-06-21T19:00:19.868Z,3.65
2018-06-21T19:02:48.415Z,5.03
2018-06-21T19:05:16.935Z,1.70
2018-06-21T19:07:46.516Z,4.85
2018-06-21T19:10:20.565Z,7.67
2018-06-21T19:12:49.261Z,5.17
2018-06-21T19:15:18.039Z,4.35
2018-06-21T19:17:46.670Z,5.15
2018-06-21T19:20:15.223Z,5.28
2018-06-21T19:22:44.003Z,5.83
2018-06-21T19:25:12.610Z,4.65
2018-06-21T19:27:42.325Z,3.02
2018-06-21T19:30:10.913Z,2.27
2018-06-21T19:32:40.183Z,5.08
2018-06-21T19:35:08.816Z,3.52
2018-06-21T19:37:37.364Z,4.30
2018-06-21T19:40:05.877Z,4.78
2018-06-21T19:42:34.555Z,3.72
2018-06-21T19:45:03.114Z,3.62
2018-06-21T19:47:31.727Z,6.05
2018-06-21T19:50:00.265Z,2.95
2018-06-21T19:52:28.846Z,7.47
2018-06-21T19:54:57.443Z,3.87
2018-06-21T19:57:26.070Z,5.35
2018-06-21T19:59:54.758Z,4.05
2018-06-21T20:02:28.084Z,4.05
2018-06-21T20:04:56.649Z,4.95
2018-06-21T20:07:26.194Z,3.65
2018-06-21T20:09:54.797Z,4.47
2018-06-21T20:12:23.410Z,5.47
2018-06-21T20:14:52.034Z,9.50
2018-06-21T20:17:20.690Z,6.08
2018-06-21T20:19:54.638Z,4.30
2018-06-21T20:22:23.269Z,9.75
2018-06-21T20:24:52.718Z,4.80
2018-06-21T20:27:21.253Z,2.87
2018-06-21T20:29:50.398Z,7.65
2018-06-21T20:32:18.995Z,8.80
2018-06-21T20:34:47.610Z,11.00
2018-06-21T20:37:18.261Z,5.62
2018-06-21T20:39:47.547Z,6.42
2018-06-21T20:42:16.146Z,7.28
2018-06-21T20:44:45.566Z,7.87
2018-06-21T20:47:14.166Z,7.22
2018-06-21T20:49:43.463Z,5.20
2018-06-21T20:52:17.321Z,7.87
2018-06-21T20:54:46.781Z,7.42
2018-06-21T20:57:15.597Z,6.15
2018-06-21T20:59:46.397Z,10.45
2018-06-21T21:02:14.973Z,5.33
2018-06-21T21:05:09.534Z,6.53
2018-06-21T21:07:38.100Z,9.53
2018-06-21T21:10:08.286Z,5.60
2018-06-21T21:12:36.994Z,8.13
2018-06-21T21:15:06.682Z,8.03
2018-06-21T21:17:35.658Z,3.17
2018-06-21T21:20:05.204Z,5.40
2018-06-21T21:22:34.334Z,10.48
2018-06-21T21:25:02.943Z,11.12
2018-06-21T21:27:31.542Z,7.42
2018-06-21T21:30:00.262Z,9.48
2018-06-21T21:32:28.934Z,8.15
2018-06-21T21:34:58.327Z,11.80
2018-06-21T21:37:28.096Z,7.20
2018-06-21T21:39:58.965Z,9.20
2018-06-21T21:42:28.878Z,8.33
2018-06-21T21:44:58.051Z,4.90
